createdAt,value
2022-10-22T00:00:14.696Z,96991.53
2022-10-22T00:02:43.260Z,96980.94
2022-10-22T00:05:12.400Z,96977.47
2022-10-22T00:07:42.360Z,96981.94
2022-10-22T00:10:11.834Z,96988.06
2022-10-22T00:12:40.345Z,96976.63
2022-10-22T00:15:09.535Z,96985.56
2022-10-22T00:17:38.527Z,96973.97
2022-10-22T00:20:08.695Z,96980.28
2022-10-22T00:22:37.105Z,96980.28
2022-10-22T00:25:07.497Z,96980.28
2022-10-22T00:27:36.143Z,96976.78
2022-10-22T00:30:05.246Z,96980.28
2022-10-22T00:32:33.696Z,96971.50
2022-10-22T00:35:02.177Z,96980.28
2022-10-22T00:37:31.766Z,96983.91
2022-10-22T00:40:00.301Z,96986.56
2022-10-22T00:42:30.445Z,96999.81
2022-10-22T00:45:06.813Z,96997.16
2022-10-22T00:47:37.473Z,96996.50
2022-10-22T00:50:09.207Z,97011.41
2022-10-22T00:52:38.076Z,97017.88
2022-10-22T00:55:07.988Z,97027.66
2022-10-22T00:57:38.100Z,97019.72
2022-10-22T01:00:07.810Z,97018.88
2022-10-22T01:02:36.245Z,97018.72
2022-10-22T01:05:05.083Z,97022.34
2022-10-22T01:07:37.602Z,97015.22
2022-10-22T01:10:10.336Z,97015.22
2022-10-22T01:12:44.996Z,97017.06
2022-10-22T01:15:19.825Z,97010.91
2022-10-22T01:17:55.086Z,97010.25
2022-10-22T01:20:47.501Z,97014.72
2022-10-22T01:23:26.380Z,97004.13
2022-10-22T01:25:58.506Z,97003.97
2022-10-22T01:28:39.788Z,96993.53
2022-10-22T01:31:09.414Z,96989.03
2022-10-22T01:33:38.727Z,96977.47
2022-10-22T01:36:08.132Z,96960.72
2022-10-22T01:38:37.325Z,96965.19
2022-10-22T01:41:06.232Z,96964.38
2022-10-22T01:43:34.603Z,96964.53
2022-10-22T01:46:05.998Z,96959.06
2022-10-22T01:48:38.965Z,96965.19
2022-10-22T01:51:32.612Z,96961.72
2022-10-22T01:54:03.996Z,96975.13
2022-10-22T01:56:44.047Z,96977.78
2022-10-22T01:59:18.847Z,96982.09
2022-10-22T02:05:47.209Z,96978.75
2022-10-22T02:08:18.483Z,96992.84
2022-10-22T02:10:48.125Z,97001.63
2022-10-22T02:13:19.632Z,97002.78
2022-10-22T02:15:50.360Z,96997.47
2022-10-22T02:18:20.063Z,97003.44
2022-10-22T02:20:50.152Z,97000.13
2022-10-22T02:23:18.536Z,97004.28
2022-10-22T02:25:50.753Z,97013.38
2022-10-22T02:28:23.612Z,96998.47
2022-10-22T02:30:55.016Z,97009.06
2022-10-22T02:33:24.884Z,97008.06
2022-10-22T02:35:55.092Z,97009.69
2022-10-22T02:38:24.396Z,97008.84
2022-10-22T02:40:53.160Z,97018.31
2022-10-22T02:43:21.717Z,97014.53
2022-10-22T02:45:50.078Z,97011.19
2022-10-22T02:48:18.641Z,97011.34
2022-10-22T02:50:47.124Z,97016.34
2022-10-22T02:53:19.149Z,97006.22
2022-10-22T02:55:47.496Z,97004.91
2022-10-22T02:58:15.805Z,96999.09
2022-10-22T03:00:44.335Z,96993.31
2022-10-22T03:03:12.720Z,96988.34
2022-10-22T03:05:41.183Z,96988.50
2022-10-22T03:08:09.538Z,96991.97
2022-10-22T03:10:39.224Z,97001.34
2022-10-22T03:13:07.652Z,96994.78
2022-10-22T03:15:36.102Z,96989.16
2022-10-22T03:18:04.691Z,96993.09
2022-10-22T03:20:33.108Z,96995.72
2022-10-22T03:23:02.266Z,96996.44
2022-10-22T03:25:34.550Z,96992.81
2022-10-22T03:28:06.877Z,96994.78
2022-10-22T03:30:35.374Z,97019.75
2022-10-22T03:33:03.867Z,97025.19
2022-10-22T03:35:32.561Z,97011.63
2022-10-22T03:38:01.658Z,97022.94
2022-10-22T03:40:30.183Z,97031.00
2022-10-22T03:42:59.659Z,97035.34
2022-10-22T03:45:29.455Z,97022.53
2022-10-22T03:47:58.003Z,97031.88
2022-10-22T03:50:26.471Z,97031.72
2022-10-22T03:52:54.853Z,97009.28
2022-10-22T03:55:23.315Z,97019.91
2022-10-22T03:57:51.669Z,97031.72
2022-10-22T04:00:20.604Z,97039.66
2022-10-22T04:02:50.434Z,97056.69
2022-10-22T04:05:18.894Z,97051.25
2022-10-22T04:07:47.491Z,97057.81
2022-10-22T04:10:16.225Z,97084.00
2022-10-22T04:12:44.754Z,97077.19
2022-10-22T04:15:14.173Z,97071.91
2022-10-22T04:17:43.369Z,97065.41
2022-10-22T04:20:13.796Z,97071.53
2022-10-22T04:22:42.480Z,97061.94
2022-10-22T04:25:11.242Z,97067.59
2022-10-22T04:27:40.157Z,97079.84
2022-10-22T04:30:13.611Z,97088.13
2022-10-22T04:32:42.338Z,97082.97
2022-10-22T04:35:10.946Z,97096.38
2022-10-22T04:37:41.069Z,97106.28
2022-10-22T04:40:11.150Z,97092.38
2022-10-22T04:42:39.701Z,97094.03
2022-10-22T04:45:09.569Z,97109.47
2022-10-22T04:47:38.233Z,97105.16
2022-10-22T04:50:09.163Z,97119.06
2022-10-22T04:52:38.086Z,97116.88
2022-10-22T04:55:08.871Z,97117.41
2022-10-22T04:57:39.494Z,97102.81
2022-10-22T05:00:10.011Z,97104.47
2022-10-22T05:02:40.661Z,97122.56
2022-10-22T05:05:09.463Z,97112.25
2022-10-22T05:07:42.031Z,97103.13
2022-10-22T05:10:12.491Z,97108.78
2022-10-22T05:12:41.027Z,97118.91
2022-10-22T05:15:10.629Z,97124.91
2022-10-22T05:17:39.659Z,97117.25
2022-10-22T05:20:10.146Z,97126.72
2022-10-22T05:22:38.580Z,97134.81
2022-10-22T05:25:08.521Z,97132.00
2022-10-22T05:27:39.116Z,97132.84
2022-10-22T05:30:08.554Z,97120.91
2022-10-22T05:32:37.046Z,97120.38
2022-10-22T05:35:06.152Z,97120.06
2022-10-22T05:37:34.786Z,97115.44
2022-10-22T05:40:18.973Z,97111.97
2022-10-22T05:42:53.022Z,97115.59
2022-10-22T05:45:21.656Z,97123.38
2022-10-22T05:47:50.096Z,97125.88
2022-10-22T05:50:18.540Z,97122.88
2022-10-22T05:52:47.154Z,97128.69
2022-10-22T05:55:15.777Z,97125.66
2022-10-22T05:57:44.330Z,97129.97
2022-10-22T06:00:16.524Z,97118.09
2022-10-22T06:02:45.353Z,97129.38
2022-10-22T06:05:13.977Z,97134.81
2022-10-22T06:07:42.490Z,97134.81
2022-10-22T06:10:15.536Z,97135.97
2022-10-22T06:12:44.325Z,97137.94
2022-10-22T06:15:15.596Z,97155.03
2022-10-22T06:17:45.378Z,97163.97
2022-10-22T06:20:17.649Z,97151.69
2022-10-22T06:22:48.242Z,97148.53
2022-10-22T06:25:17.146Z,97161.09
2022-10-22T06:27:51.659Z,97172.75
2022-10-22T06:30:22.826Z,97174.03
2022-10-22T06:32:51.476Z,97177.00
2022-10-22T06:35:19.989Z,97186.00
2022-10-22T06:37:48.548Z,97172.38
2022-10-22T06:40:19.699Z,97185.84
2022-10-22T06:42:48.143Z,97185.63
2022-10-22T06:45:16.912Z,97197.06
2022-10-22T06:47:47.270Z,97213.31
2022-10-22T06:50:16.018Z,97218.09
2022-10-22T06:52:44.440Z,97224.91
2022-10-22T06:55:12.905Z,97226.03
2022-10-22T06:57:44.381Z,97228.84
2022-10-22T07:00:14.256Z,97228.84
2022-10-22T07:02:45.889Z,97228.53
2022-10-22T07:05:14.660Z,97225.75
2022-10-22T07:07:43.226Z,97229.69
2022-10-22T07:10:11.867Z,97231.03
2022-10-22T07:12:40.650Z,97242.47
2022-10-22T07:15:10.009Z,97237.63
2022-10-22T07:20:10.061Z,97253.06
2022-10-22T07:22:39.052Z,97257.53
2022-10-22T07:25:10.645Z,97254.34
2022-10-22T07:27:39.557Z,97260.50
2022-10-22T07:30:12.862Z,97279.03
2022-10-22T07:32:47.866Z,97275.25
2022-10-22T07:35:20.684Z,97287.00
2022-10-22T07:37:49.371Z,97299.09
2022-10-22T07:40:18.482Z,97291.00
2022-10-22T07:42:47.551Z,97283.66
2022-10-22T07:45:16.262Z,97296.47
2022-10-22T07:47:44.894Z,97293.41
2022-10-22T07:50:13.505Z,97310.00
2022-10-22T07:52:43.814Z,97300.38
2022-10-22T07:55:14.613Z,97318.50
2022-10-22T07:57:43.334Z,97315.00
2022-10-22T08:00:13.282Z,97306.66
2022-10-22T08:02:42.651Z,97320.31
2022-10-22T08:05:13.522Z,97309.84
2022-10-22T08:07:44.363Z,97314.47
2022-10-22T08:10:13.834Z,97329.25
2022-10-22T08:15:56.479Z,97334.25
2022-10-22T08:18:29.067Z,97335.22
2022-10-22T08:20:57.674Z,97329.91
2022-10-22T08:23:28.945Z,97335.22
2022-10-22T08:25:58.521Z,97334.38
2022-10-22T08:28:28.763Z,97338.16
2022-10-22T08:30:57.400Z,97345.81
2022-10-22T08:33:25.926Z,97343.16
2022-10-22T08:35:54.750Z,97332.56
2022-10-22T08:38:23.856Z,97340.53
2022-10-22T08:40:58.567Z,97350.19
2022-10-22T08:43:48.772Z,97350.44
2022-10-22T08:46:29.904Z,97353.78
2022-10-22T08:49:01.422Z,97362.41
2022-10-22T08:51:32.881Z,97367.84
2022-10-22T08:54:12.497Z,97370.50
2022-10-22T08:56:44.599Z,97360.72
2022-10-22T08:59:16.449Z,97366.19
2022-10-22T09:01:47.479Z,97369.66
2022-10-22T09:04:25.155Z,97368.00
2022-10-22T09:06:54.639Z,97366.88
2022-10-22T09:09:23.318Z,97377.09
2022-10-22T09:11:53.592Z,97384.19
2022-10-22T09:14:24.162Z,97379.72
2022-10-22T09:17:11.745Z,97382.78
2022-10-22T09:19:49.355Z,97383.06
2022-10-22T09:22:26.452Z,97387.69
2022-10-22T09:24:59.127Z,97382.53
2022-10-22T09:27:30.650Z,97381.09
2022-10-22T09:29:59.545Z,97387.69
2022-10-22T09:32:28.306Z,97391.00
2022-10-22T09:34:58.246Z,97393.38
2022-10-22T09:37:29.290Z,97387.09
2022-10-22T09:39:59.573Z,97393.22
2022-10-22T09:42:29.426Z,97401.75
2022-10-22T09:44:59.961Z,97403.56
2022-10-22T09:47:42.693Z,97406.91
2022-10-22T09:50:20.967Z,97410.09
2022-10-22T09:52:59.011Z,97419.72
2022-10-22T09:55:28.334Z,97425.69
2022-10-22T09:58:00.357Z,97416.63
2022-10-22T10:00:29.160Z,97416.47
2022-10-22T10:02:58.423Z,97412.97
2022-10-22T10:05:29.988Z,97415.31
2022-10-22T10:07:59.404Z,97426.75
2022-10-22T10:10:38.418Z,97413.34
2022-10-22T10:13:32.530Z,97413.34
2022-10-22T10:16:06.013Z,97419.47
2022-10-22T10:18:45.217Z,97412.22
2022-10-22T10:21:20.174Z,97415.69
2022-10-22T10:23:55.406Z,97418.44
2022-10-22T10:26:30.842Z,97422.00
2022-10-22T10:29:14.458Z,97421.56
2022-10-22T10:31:53.835Z,97417.94
2022-10-22T10:34:31.164Z,97421.56
2022-10-22T10:37:05.542Z,97414.44
2022-10-22T10:39:40.547Z,97409.22
2022-10-22T10:42:19.064Z,97406.81
2022-10-22T10:44:55.789Z,97414.84
2022-10-22T10:47:47.592Z,97409.75
2022-10-22T10:50:22.070Z,97406.81
2022-10-22T10:52:56.655Z,97405.13
2022-10-22T10:55:29.951Z,97410.66
2022-10-22T10:58:05.280Z,97417.66
2022-10-22T11:00:40.518Z,97408.00
2022-10-22T11:03:26.709Z,97404.00
2022-10-22T11:05:57.844Z,97401.66
2022-10-22T11:08:28.440Z,97401.66
2022-10-22T11:11:01.549Z,97390.06
2022-10-22T11:13:33.221Z,97396.03
2022-10-22T11:16:06.833Z,97390.28
2022-10-22T11:18:38.637Z,97395.81
2022-10-22T11:21:20.776Z,97391.25
2022-10-22T11:23:52.350Z,97394.56
2022-10-22T11:26:28.541Z,97393.91
2022-10-22T11:28:59.561Z,97399.50
2022-10-22T11:31:34.744Z,97398.81
2022-10-22T11:34:31.985Z,97396.31
2022-10-22T11:36:57.705Z,97389.31
2022-10-22T11:39:39.453Z,97386.53
2022-10-22T11:42:11.618Z,97394.47
2022-10-22T11:44:57.379Z,97399.13
2022-10-22T11:47:29.607Z,97399.13
2022-10-22T11:50:00.863Z,97387.22
2022-10-22T11:52:41.604Z,97394.13
2022-10-22T11:55:45.981Z,97389.03
2022-10-22T11:58:30.469Z,97385.75
2022-10-22T12:01:00.178Z,97396.06
2022-10-22T12:03:42.349Z,97400.53
2022-10-22T12:06:20.956Z,97398.88
2022-10-22T12:08:56.202Z,97396.38
2022-10-22T12:11:26.464Z,97397.50
2022-10-22T12:14:04.376Z,97387.88
2022-10-22T12:16:56.682Z,97398.66
2022-10-22T12:19:30.111Z,97399.63
2022-10-22T12:22:00.877Z,97391.69
2022-10-22T12:24:33.387Z,97387.19
2022-10-22T12:27:01.903Z,97386.38
2022-10-22T12:29:33.265Z,97374.91
2022-10-22T12:32:05.054Z,97377.25
2022-10-22T12:34:34.941Z,97370.13
2022-10-22T12:37:05.825Z,97374.44
2022-10-22T12:39:35.548Z,97368.97
2022-10-22T12:42:05.903Z,97368.97
2022-10-22T12:44:34.765Z,97374.28
2022-10-22T12:47:03.294Z,97373.47
2022-10-22T12:49:37.143Z,97373.47
2022-10-22T12:52:10.833Z,97372.63
2022-10-22T12:54:41.944Z,97373.47
2022-10-22T12:57:12.435Z,97368.97
2022-10-22T12:59:45.908Z,97369.81
2022-10-22T13:02:21.628Z,97356.38
2022-10-22T13:05:17.650Z,97364.19
2022-10-22T13:07:48.930Z,97375.66
2022-10-22T13:10:21.332Z,97366.69
2022-10-22T13:12:56.827Z,97372.84
2022-10-22T13:15:37.900Z,97367.53
2022-10-22T13:18:15.174Z,97358.56
2022-10-22T13:20:55.963Z,97364.72
2022-10-22T13:23:25.712Z,97360.09
2022-10-22T13:25:59.977Z,97368.88
2022-10-22T13:28:28.880Z,97370.53
2022-10-22T13:30:58.943Z,97359.25
2022-10-22T13:33:30.547Z,97367.06
2022-10-22T13:36:00.463Z,97370.53
2022-10-22T13:38:29.445Z,97372.88
2022-10-22T13:40:59.256Z,97368.63
2022-10-22T13:43:27.856Z,97373.16
2022-10-22T13:45:59.373Z,97364.03
2022-10-22T13:48:29.508Z,97365.38
2022-10-22T13:50:58.104Z,97372.72
2022-10-22T13:53:29.341Z,97366.94
2022-10-22T13:55:58.036Z,97365.75
2022-10-22T13:58:26.556Z,97363.75
2022-10-22T14:00:57.372Z,97370.59
2022-10-22T14:03:28.415Z,97362.44
2022-10-22T14:05:57.395Z,97357.66
2022-10-22T14:08:28.558Z,97363.47
2022-10-22T14:10:57.331Z,97356.19
2022-10-22T14:13:26.633Z,97351.38
2022-10-22T14:15:55.177Z,97354.75
2022-10-22T14:18:28.168Z,97355.25
2022-10-22T14:20:58.594Z,97352.44
2022-10-22T14:23:29.763Z,97356.59
2022-10-22T14:25:59.420Z,97356.59
2022-10-22T14:28:29.657Z,97357.06
2022-10-22T14:30:59.943Z,97361.88
2022-10-22T14:33:32.143Z,97361.06
2022-10-22T14:36:01.059Z,97367.38
2022-10-22T14:38:31.165Z,97360.09
2022-10-22T14:41:00.815Z,97368.56
2022-10-22T14:43:31.210Z,97370.72
2022-10-22T14:46:00.110Z,97367.75
2022-10-22T14:48:28.705Z,97370.75
2022-10-22T14:50:57.253Z,97373.91
2022-10-22T14:53:25.801Z,97365.78
2022-10-22T14:55:59.101Z,97372.59
2022-10-22T14:58:27.786Z,97366.28
2022-10-22T15:00:56.393Z,97372.28
2022-10-22T15:03:25.010Z,97372.13
2022-10-22T15:05:55.791Z,97370.97
2022-10-22T15:08:25.445Z,97368.31
2022-10-22T15:11:03.354Z,97379.44
2022-10-22T15:13:32.389Z,97383.78
2022-10-22T15:16:01.324Z,97378.63
2022-10-22T15:18:29.923Z,97378.28
2022-10-22T15:21:00.558Z,97381.25
2022-10-22T15:23:30.014Z,97383.59
2022-10-22T15:25:58.734Z,97382.44
2022-10-22T15:28:28.674Z,97386.91
2022-10-22T15:30:58.788Z,97390.06
2022-10-22T15:33:28.538Z,97383.25
2022-10-22T15:35:58.130Z,97395.88
2022-10-22T15:41:05.280Z,97397.84
2022-10-22T15:43:35.846Z,97405.16
2022-10-22T15:46:11.720Z,97405.16
2022-10-22T15:48:40.255Z,97406.97
2022-10-22T15:51:10.404Z,97396.50
2022-10-22T15:53:39.001Z,97405.47
2022-10-22T15:56:08.273Z,97403.81
2022-10-22T15:58:38.174Z,97411.78
2022-10-22T16:01:08.150Z,97411.94
2022-10-22T16:03:37.225Z,97407.47
2022-10-22T16:06:07.136Z,97411.13
2022-10-22T16:08:36.416Z,97412.09
2022-10-22T16:11:05.562Z,97414.75
2022-10-22T16:13:36.775Z,97415.75
2022-10-22T16:16:08.642Z,97422.91
2022-10-22T16:18:37.442Z,97415.75
2022-10-22T16:21:06.230Z,97414.09
2022-10-22T16:23:34.974Z,97409.75
2022-10-22T16:26:03.747Z,97424.06
2022-10-22T16:31:04.881Z,97425.03
2022-10-22T16:33:41.507Z,97425.03
2022-10-22T16:36:17.873Z,97430.53
2022-10-22T16:38:46.453Z,97437.50
2022-10-22T16:41:16.933Z,97425.19
2022-10-22T16:43:48.390Z,97444.81
2022-10-22T16:46:17.921Z,97445.63
2022-10-22T16:48:48.315Z,97450.94
2022-10-22T16:51:18.730Z,97451.94
2022-10-22T16:53:47.299Z,97452.94
2022-10-22T16:56:17.314Z,97463.56
2022-10-22T16:58:47.771Z,97452.94
2022-10-22T17:01:18.140Z,97463.88
2022-10-22T17:03:48.470Z,97462.06
2022-10-22T17:06:17.095Z,97485.16
2022-10-22T17:08:45.625Z,97477.16
2022-10-22T17:11:17.421Z,97474.63
2022-10-22T17:13:48.706Z,97483.59
2022-10-22T17:16:19.940Z,97482.78
2022-10-22T17:18:50.094Z,97486.25
2022-10-22T17:21:19.500Z,97492.56
2022-10-22T17:23:48.451Z,97482.09
2022-10-22T17:26:19.573Z,97479.59
2022-10-22T17:28:48.712Z,97488.41
2022-10-22T17:31:18.897Z,97491.22
2022-10-22T17:33:49.839Z,97489.38
2022-10-22T17:36:19.021Z,97481.56
2022-10-22T17:38:50.365Z,97487.72
2022-10-22T17:41:21.358Z,97493.88
2022-10-22T17:43:50.142Z,97494.03
2022-10-22T17:46:21.070Z,97496.84
2022-10-22T17:48:54.510Z,97497.69
2022-10-22T17:51:24.657Z,97495.03
2022-10-22T17:53:53.313Z,97502.31
2022-10-22T17:56:23.377Z,97507.63
2022-10-22T17:58:52.429Z,97508.78
2022-10-22T18:01:22.680Z,97503.78
2022-10-22T18:03:53.212Z,97512.72
2022-10-22T18:06:21.995Z,97517.22
2022-10-22T18:08:50.718Z,97511.91
2022-10-22T18:11:21.473Z,97515.72
2022-10-22T18:13:50.889Z,97521.03
2022-10-22T18:16:19.845Z,97520.22
2022-10-22T18:18:50.309Z,97519.38
2022-10-22T18:21:20.514Z,97522.88
2022-10-22T18:23:49.068Z,97526.34
2022-10-22T18:26:20.237Z,97531.66
2022-10-22T18:28:51.464Z,97517.72
2022-10-22T18:31:21.861Z,97517.72
2022-10-22T18:33:50.845Z,97521.34
2022-10-22T18:36:23.733Z,97532.81
2022-10-22T18:38:52.887Z,97518.84
2022-10-22T18:41:21.891Z,97525.16
2022-10-22T18:43:53.716Z,97522.50
2022-10-22T18:46:24.108Z,97521.81
2022-10-22T18:48:53.852Z,97513.00
2022-10-22T18:51:25.068Z,97515.66
2022-10-22T18:54:05.024Z,97516.81
2022-10-22T18:56:34.157Z,97518.63
2022-10-22T18:59:02.937Z,97523.13
2022-10-22T19:01:31.569Z,97527.75
2022-10-22T19:04:00.485Z,97527.91
2022-10-22T19:06:34.467Z,97529.72
2022-10-22T19:09:05.869Z,97533.22
2022-10-22T19:11:34.508Z,97537.69
2022-10-22T19:14:03.037Z,97533.22
2022-10-22T19:16:31.556Z,97528.88
2022-10-22T19:19:02.312Z,97525.41
2022-10-22T19:21:32.319Z,97526.38
2022-10-22T19:24:01.939Z,97536.03
2022-10-22T19:26:31.569Z,97532.69
2022-10-22T19:29:00.631Z,97534.66
2022-10-22T19:31:31.296Z,97530.19
2022-10-22T19:34:00.659Z,97527.53
2022-10-22T19:36:30.280Z,97519.84
2022-10-22T19:39:00.410Z,97526.00
2022-10-22T19:41:30.437Z,97521.69
2022-10-22T19:44:00.110Z,97512.03
2022-10-22T19:46:30.420Z,97525.31
2022-10-22T19:48:59.000Z,97523.66
2022-10-22T19:51:29.763Z,97527.31
2022-10-22T19:54:00.648Z,97525.63
2022-10-22T19:56:29.311Z,97522.44
2022-10-22T19:58:58.085Z,97522.59
2022-10-22T20:01:27.144Z,97511.28
2022-10-22T20:03:55.959Z,97513.94
2022-10-22T20:06:25.056Z,97516.75
2022-10-22T20:08:56.044Z,97516.06
2022-10-22T20:11:28.072Z,97523.06
2022-10-22T20:13:57.492Z,97518.88
2022-10-22T20:16:28.793Z,97529.66
2022-10-22T20:19:00.895Z,97528.81
2022-10-22T20:21:29.667Z,97533.31
2022-10-22T20:23:58.592Z,97531.63
2022-10-22T20:26:31.755Z,97530.94
2022-10-22T20:29:00.836Z,97536.09
2022-10-22T20:31:30.179Z,97546.19
2022-10-22T20:33:59.655Z,97559.31
2022-10-22T20:36:29.311Z,97558.63
2022-10-22T20:39:00.699Z,97556.97
2022-10-22T20:41:30.651Z,97558.09
2022-10-22T20:43:59.118Z,97556.28
2022-10-22T20:46:29.600Z,97558.09
2022-10-22T20:49:00.785Z,97553.63
2022-10-22T20:51:29.459Z,97558.25
2022-10-22T20:53:58.086Z,97552.09
2022-10-22T20:56:27.058Z,97561.91
2022-10-22T20:59:04.411Z,97563.72
2022-10-22T21:01:34.864Z,97557.72
2022-10-22T21:04:03.496Z,97546.28
2022-10-22T21:06:32.056Z,97545.44
2022-10-22T21:09:00.904Z,97555.22
2022-10-22T21:11:29.420Z,97555.22
2022-10-22T21:13:59.337Z,97553.53
2022-10-22T21:16:28.222Z,97556.34
2022-10-22T21:18:57.508Z,97544.91
2022-10-22T21:21:26.289Z,97546.72
2022-10-22T21:23:54.890Z,97546.88
2022-10-22T21:26:23.473Z,97551.19
2022-10-22T21:28:52.338Z,97542.53
2022-10-22T21:31:24.229Z,97554.16
2022-10-22T21:33:53.737Z,97546.19
2022-10-22T21:36:23.731Z,97550.81
2022-10-22T21:38:52.780Z,97547.31
2022-10-22T21:41:23.561Z,97549.13
2022-10-22T21:43:52.337Z,97543.00
2022-10-22T21:46:24.024Z,97537.81
2022-10-22T21:48:56.383Z,97540.47
2022-10-22T21:51:25.785Z,97537.81
2022-10-22T21:53:54.794Z,97540.59
2022-10-22T21:56:25.721Z,97543.25
2022-10-22T21:58:54.394Z,97548.75
2022-10-22T22:01:24.442Z,97548.91
2022-10-22T22:03:53.527Z,97553.38
2022-10-22T22:06:23.737Z,97548.06
2022-10-22T22:08:53.764Z,97551.69
2022-10-22T22:11:24.848Z,97555.34
2022-10-22T22:13:55.031Z,97550.03
2022-10-22T22:16:28.653Z,97553.66
2022-10-22T22:18:58.223Z,97549.34
2022-10-22T22:21:27.104Z,97545.84
2022-10-22T22:23:55.613Z,97531.06
2022-10-22T22:26:29.504Z,97538.03
2022-10-22T22:28:59.800Z,97541.69
2022-10-22T22:31:31.401Z,97545.31
2022-10-22T22:34:01.007Z,97549.78
2022-10-22T22:36:34.779Z,97533.88
2022-10-22T22:39:06.383Z,97540.16
2022-10-22T22:41:35.527Z,97531.38
2022-10-22T22:44:04.779Z,97527.03
2022-10-22T22:46:34.971Z,97517.41
2022-10-22T22:49:03.420Z,97531.66
2022-10-22T22:51:32.247Z,97533.47
2022-10-22T22:54:01.354Z,97536.28
2022-10-22T22:56:30.803Z,97534.63
2022-10-22T22:58:59.658Z,97533.63
2022-10-22T23:01:30.367Z,97526.66
2022-10-22T23:04:01.731Z,97529.47
2022-10-22T23:06:32.899Z,97524.97
2022-10-22T23:09:01.652Z,97518.00
2022-10-22T23:11:30.224Z,97514.66
2022-10-22T23:13:59.699Z,97507.69
2022-10-22T23:16:31.013Z,97505.03
2022-10-22T23:19:01.605Z,97502.53
2022-10-22T23:21:31.747Z,97497.38
2022-10-22T23:24:02.891Z,97501.84
2022-10-22T23:26:33.533Z,97498.38
2022-10-22T23:29:02.967Z,97493.22
2022-10-22T23:31:31.557Z,97484.41
2022-10-22T23:34:01.645Z,97481.75
2022-10-22T23:36:30.419Z,97493.34
2022-10-22T23:38:58.998Z,97489.72
2022-10-22T23:41:27.484Z,97490.69
2022-10-22T23:43:55.990Z,97486.53
2022-10-22T23:46:24.483Z,97475.91
2022-10-22T23:48:53.739Z,97475.09
2022-10-22T23:51:24.603Z,97474.25
2022-10-22T23:53:56.307Z,97467.13
2022-10-22T23:56:24.834Z,97466.28
2022-10-22T23:58:54.151Z,97458.47
